Time;durP1;ratioP1;P1;durP2;ratioP2;P2;SDS_P1;SDS_P2;PMS_P1;PMS_P2;Temp;Humidity;BMP_temperature;BMP_pressure;BME280_temperature;BME280_humidity;BME280_pressure;Samples;Min_cycle;Max_cycle;Signal;HPM_P1;HPM_P2
2021/12/18 00:01:25;;;;;;;;;26.50;23.50;;;;;7.76;73.77;102817.81;5083575;27;45561;-80
2021/12/18 00:03:51;;;;;;;;;31.00;24.00;;;;;7.90;73.85;102836.59;5074195;28;45573;-79
2021/12/18 00:06:17;;;;;;;;;31.25;26.00;;;;;7.92;73.95;102842.63;5074357;28;46014;-80
2021/12/18 00:08:43;;;;;;;;;30.75;24.00;;;;;7.84;73.89;102827.16;5074558;28;45635;-82
2021/12/18 00:11:09;;;;;;;;;29.75;24.00;;;;;7.87;73.92;102834.91;5074256;28;45732;-82
2021/12/18 00:13:34;;;;;;;;;30.50;26.75;;;;;7.86;74.07;102838.41;5074192;28;46318;-83
2021/12/18 00:16:00;;;;;;;;;27.50;22.25;;;;;7.78;74.16;102823.81;5074440;28;46190;-81
2021/12/18 00:18:25;;;;;;;;;28.50;24.00;;;;;7.85;73.86;102833.22;5074127;28;45666;-80
2021/12/18 00:20:51;;;;;;;;;30.50;27.50;;;;;7.77;73.70;102822.13;5074307;28;45775;-81
2021/12/18 00:23:17;;;;;;;;;24.00;23.25;;;;;7.78;73.79;102816.84;5074167;28;45694;-80
2021/12/18 00:25:43;;;;;;;;;32.50;27.50;;;;;7.83;73.75;102835.88;5074577;28;46129;-80
2021/12/18 00:31:30;;;;;;;;;26.75;23.00;;;;;7.76;73.93;102815.19;5077247;28;45749;-81
2021/12/18 00:33:56;;;;;;;;;26.00;21.50;;;;;7.79;73.78;102821.19;5077507;28;46435;-79
2021/12/18 00:36:24;;;;;;;;;29.00;24.25;;;;;7.79;73.89;102815.97;5077135;28;46216;-81
2021/12/18 00:38:49;;;;;;;;;25.25;21.75;;;;;7.66;73.96;102803.28;5077753;28;45495;-80
2021/12/18 00:41:28;;;;;;;;;33.50;24.00;;;;;7.74;73.86;102810.00;5077838;28;45881;-79
2021/12/18 00:44:03;;;;;;;;;19.00;18.00;;;;;7.72;73.72;102805.72;5077342;28;47422;-81
2021/12/18 00:46:38;;;;;;;;;28.50;23.25;;;;;7.79;73.92;102823.78;5078832;28;46365;-79
2021/12/18 00:49:05;;;;;;;;;27.50;23.00;;;;;7.76;73.85;102818.66;5079300;28;45806;-80
2021/12/18 00:51:30;;;;;;;;;30.50;24.25;;;;;7.73;73.74;102799.59;5080189;28;45678;-80
2021/12/18 00:53:56;;;;;;;;;27.50;24.75;;;;;7.72;73.75;102803.94;5079906;28;45711;-80
2021/12/18 00:56:22;;;;;;;;;25.25;21.25;;;;;7.71;73.79;102814.44;5077174;28;46454;-80
2021/12/18 00:58:49;;;;;;;;;21.25;19.50;;;;;7.64;73.80;102803.28;5077344;28;45573;-80
2021/12/18 01:01:15;;;;;;;;;26.00;20.25;;;;;7.44;73.84;102767.25;5086049;27;45881;-79
2021/12/18 01:03:42;;;;;;;;;26.50;23.00;;;;;7.46;73.72;102775.03;5097394;27;45633;-78
2021/12/18 01:06:08;;;;;;;;;28.00;25.50;;;;;7.68;73.84;102809.28;5097239;27;47071;-80
2021/12/18 01:08:34;;;;;;;;;21.25;20.00;;;;;7.58;73.79;102793.88;5097329;27;45635;-79
2021/12/18 01:11:30;;;;;;;;;26.00;22.75;;;;;7.59;73.59;102803.41;5097730;27;45668;-80
2021/12/18 01:22:47;;;;;;;;;18.00;16.25;;;;;7.55;73.71;102807.00;5054332;28;45595;-80
2021/12/18 01:25:15;;;;;;;;;25.25;23.25;;;;;7.60;73.68;102814.69;5054331;28;46611;-80
2021/12/18 01:27:41;;;;;;;;;24.75;21.25;;;;;7.49;73.65;102808.88;5054368;28;46443;-80
2021/12/18 01:30:10;;;;;;;;;25.00;20.50;;;;;7.56;73.76;102824.31;5053862;28;45685;-80
2021/12/18 01:32:35;;;;;;;;;22.25;20.50;;;;;7.52;73.87;102809.66;5054365;28;45571;-80
2021/12/18 01:35:02;;;;;;;;;26.00;22.25;;;;;7.56;73.59;102816.50;5054405;28;45653;-80
2021/12/18 01:37:29;;;;;;;;;28.00;25.75;;;;;7.51;73.62;102815.75;5053433;28;46423;-81
2021/12/18 01:39:54;;;;;;;;;30.50;24.75;;;;;7.54;73.54;102822.66;5052165;28;45871;-79
2021/12/18 01:53:04;;;;;;;;;22.50;19.75;;;;;7.44;73.71;102832.44;5096833;27;45639;-78
2021/12/18 01:55:32;;;;;;;;;21.00;19.00;;;;;7.32;73.89;102819.69;5095272;27;47909;-79
2021/12/18 01:57:58;;;;;;;;;22.00;20.25;;;;;7.40;73.68;102829.91;5096918;27;46272;-80
2021/12/18 02:00:29;;;;;;;;;25.50;22.00;;;;;7.36;73.74;102823.06;5096568;27;45826;-80
2021/12/18 02:02:54;;;;;;;;;32.50;25.00;;;;;7.32;73.58;102819.69;5095315;27;45441;-79
2021/12/18 02:05:20;;;;;;;;;17.75;17.50;;;;;7.35;73.82;102821.34;5096589;27;46240;-79
2021/12/18 02:07:46;;;;;;;;;22.75;19.50;;;;;7.33;73.62;102824.00;5097155;27;46126;-80
2021/12/18 02:10:21;;;;;;;;;25.50;18.75;;;;;7.28;73.57;102825.84;5097841;27;45625;-79
2021/12/18 02:20:50;;;;;;;;;24.25;20.75;;;;;7.22;73.60;102822.53;5099638;27;45821;-79
2021/12/18 02:23:17;;;;;;;;;28.00;21.00;;;;;7.01;73.55;102788.22;5100360;27;45681;-79
2021/12/18 02:25:46;;;;;;;;;25.75;21.00;;;;;7.22;73.53;102823.38;5099599;27;46443;-79
2021/12/18 02:28:21;;;;;;;;;23.00;21.50;;;;;7.12;73.62;102817.50;5097724;27;46340;-78
2021/12/18 02:30:49;;;;;;;;;24.50;21.25;;;;;7.18;73.71;102829.53;5095820;27;45618;-78
2021/12/18 02:33:15;;;;;;;;;28.25;22.50;;;;;7.15;73.53;102830.47;5095906;27;45606;-80
2021/12/18 02:35:45;;;;;;;;;18.25;14.00;;;;;7.13;73.39;102829.63;5095853;27;47330;-81
2021/12/18 02:38:19;;;;;;;;;25.00;19.50;;;;;7.08;73.33;102828.88;5095785;27;46348;-79
2021/12/18 02:43:32;;;;;;;;;26.00;18.00;;;;;7.06;73.49;102827.19;5095787;27;45672;-80
2021/12/18 02:45:59;;;;;;;;;24.25;19.25;;;;;7.00;73.89;102814.28;5095754;27;45578;-80
2021/12/18 02:48:29;;;;;;;;;21.25;20.00;;;;;7.00;73.80;102817.75;5095668;27;46216;-82
2021/12/18 02:50:56;;;;;;;;;25.25;20.25;;;;;6.88;73.57;102807.59;5077192;27;45977;-79
2021/12/18 02:53:22;;;;;;;;;25.50;20.75;;;;;6.87;73.74;102815.41;5095944;27;45745;-81
2021/12/18 02:55:56;;;;;;;;;29.50;23.75;;;;;6.86;73.70;102811.09;5095822;27;46290;-79
2021/12/18 02:58:21;;;;;;;;;28.75;22.00;;;;;6.86;73.63;102824.13;5095805;27;45595;-80
2021/12/18 03:00:47;;;;;;;;;25.75;20.50;;;;;6.86;73.60;102830.19;5095584;27;45590;-80
2021/12/18 03:03:14;;;;;;;;;28.00;22.50;;;;;6.85;73.70;102827.63;5096067;27;45615;-81
2021/12/18 03:05:48;;;;;;;;;28.00;24.25;;;;;6.80;73.64;102824.28;5095516;27;46415;-78
2021/12/18 03:08:20;;;;;;;;;25.00;22.50;;;;;6.78;73.66;102823.44;5095432;27;47596;-81
2021/12/18 03:24:36;;;;;;;;;32.25;27.50;;;;;6.61;73.98;102832.44;5034688;28;45709;-78
2021/12/18 03:27:07;;;;;;;;;32.75;27.25;;;;;6.61;73.82;102829.81;5034707;28;45678;-80
2021/12/18 03:29:32;;;;;;;;;26.00;22.25;;;;;6.56;74.14;102823.84;5034788;28;46609;-80
2021/12/18 03:31:57;;;;;;;;;27.00;23.00;;;;;6.52;74.02;102824.78;5035352;28;45713;-80
2021/12/18 03:34:23;;;;;;;;;24.75;23.50;;;;;6.59;73.91;102830.72;5036592;28;45680;-79
2021/12/18 03:36:50;;;;;;;;;31.00;24.00;;;;;6.57;74.01;102824.72;5042289;28;46572;-79
2021/12/18 03:39:16;;;;;;;;;27.50;24.50;;;;;6.57;74.09;102820.34;5056828;28;46521;-79
2021/12/18 03:41:41;;;;;;;;;28.00;22.25;;;;;6.59;74.28;102830.72;5056286;28;45556;-79
2021/12/18 03:44:06;;;;;;;;;30.00;25.25;;;;;6.61;74.08;102824.63;5058045;28;45019;-80
2021/12/18 03:46:32;;;;;;;;;30.00;24.00;;;;;6.61;74.30;102819.41;5057806;28;45829;-79
2021/12/18 03:48:57;;;;;;;;;26.75;22.50;;;;;6.60;74.03;102816.81;5075743;27;45299;-78
2021/12/18 03:51:23;;;;;;;;;26.75;23.25;;;;;6.59;74.04;102810.75;5117419;27;45290;-81
2021/12/18 03:53:48;;;;;;;;;23.50;19.75;;;;;6.52;74.21;102800.50;5115934;27;45411;-80
2021/12/18 03:56:13;;;;;;;;;31.50;25.25;;;;;6.58;74.38;102806.47;5116019;27;45773;-78
2021/12/18 03:58:39;;;;;;;;;25.50;21.00;;;;;6.55;74.46;102806.50;5115283;27;45685;-80
2021/12/18 04:01:05;;;;;;;;;28.50;24.00;;;;;6.53;74.20;102794.41;5112122;27;45581;-79
2021/12/18 04:03:30;;;;;;;;;25.75;22.00;;;;;6.60;74.21;102802.06;5105916;27;45679;-79
2021/12/18 04:05:56;;;;;;;;;27.00;22.75;;;;;6.57;74.25;102791.72;5111547;27;45377;-79
2021/12/18 04:08:21;;;;;;;;;29.25;23.50;;;;;6.68;74.54;102805.38;5104292;27;46018;-78
2021/12/18 04:10:47;;;;;;;;;21.75;20.50;;;;;6.65;74.40;102800.22;5096976;27;45643;-79
2021/12/18 04:13:12;;;;;;;;;25.50;21.00;;;;;6.74;74.68;102810.47;5096329;27;45519;-78
2021/12/18 04:15:39;;;;;;;;;24.25;20.75;;;;;6.79;74.31;102806.91;5095704;27;45598;-79
2021/12/18 04:18:05;;;;;;;;;29.25;23.75;;;;;6.66;74.29;102775.91;5095202;27;46133;-77
2021/12/18 04:20:30;;;;;;;;;27.00;20.25;;;;;6.72;74.51;102788.81;5076173;27;45662;-79
2021/12/18 04:22:56;;;;;;;;;28.50;26.25;;;;;6.87;74.63;102807.59;5095018;27;45565;-80
2021/12/18 04:25:21;;;;;;;;;26.00;24.00;;;;;6.91;74.35;102806.69;5094524;27;46463;-80
2021/12/18 04:27:47;;;;;;;;;28.50;25.00;;;;;6.92;74.48;102796.19;5075961;27;47450;-79
2021/12/18 04:30:13;;;;;;;;;27.50;21.25;;;;;6.95;74.34;102803.97;5094282;27;45690;-80
2021/12/18 04:32:38;;;;;;;;;28.25;23.25;;;;;6.91;74.32;102794.47;5094355;27;45523;-80
2021/12/18 04:35:05;;;;;;;;;27.50;21.50;;;;;6.92;74.33;102795.34;5094412;27;46044;-80
2021/12/18 04:37:30;;;;;;;;;28.75;24.00;;;;;7.00;74.37;102809.09;5094205;27;45635;-79
2021/12/18 04:39:55;;;;;;;;;29.50;24.25;;;;;7.01;74.34;102810.81;5094201;27;45698;-78
2021/12/18 04:42:21;;;;;;;;;27.00;25.00;;;;;7.02;74.53;102810.75;5094183;27;45646;-82
2021/12/18 04:48:07;;;;;;;;;25.75;20.75;;;;;7.00;74.57;102803.88;5094105;27;45864;-79
2021/12/18 04:50:33;;;;;;;;;28.00;23.50;;;;;7.04;74.46;102806.38;5094071;27;45636;-79
2021/12/18 04:52:58;;;;;;;;;28.50;22.00;;;;;6.95;74.76;102787.47;5094696;27;45711;-79
2021/12/18 04:55:24;;;;;;;;;26.00;19.25;;;;;7.03;74.35;102806.41;5094571;27;46451;-80
2021/12/18 04:57:51;;;;;;;;;34.00;26.25;;;;;7.12;74.68;102816.66;5093980;27;45698;-79
2021/12/18 05:03:51;;;;;;;;;24.25;22.00;;;;;7.15;74.73;102825.25;5079718;27;45735;-78
2021/12/18 05:06:17;;;;;;;;;27.00;23.00;;;;;6.95;74.60;102780.53;5073863;28;46327;-79
2021/12/18 05:08:42;;;;;;;;;26.75;22.75;;;;;7.18;74.72;102823.47;5074140;28;45699;-80
2021/12/18 05:11:08;;;;;;;;;25.75;23.25;;;;;7.19;74.54;102831.25;5055338;28;45743;-80
2021/12/18 05:13:33;;;;;;;;;23.50;22.25;;;;;7.22;74.75;102822.53;5076277;28;45673;-80
2021/12/18 05:15:59;;;;;;;;;27.75;22.00;;;;;7.14;74.68;102810.50;5077440;28;45605;-82
2021/12/18 05:18:25;;;;;;;;;32.25;25.50;;;;;7.25;74.59;102831.13;5077148;28;46358;-81
2021/12/18 05:20:50;;;;;;;;;26.50;24.75;;;;;7.26;74.54;102838.06;5077528;28;45657;-80
2021/12/18 05:23:15;;;;;;;;;26.75;21.75;;;;;7.28;74.47;102823.25;5080920;28;45816;-80
2021/12/18 05:25:41;;;;;;;;;32.00;23.00;;;;;7.32;74.67;102827.50;5080988;28;46353;-81
2021/12/18 05:28:06;;;;;;;;;29.50;22.50;;;;;7.33;74.44;102825.75;5079715;28;45587;-79
2021/12/18 05:33:58;;;;;;;;;33.00;25.25;;;;;7.31;74.64;102817.97;5076602;28;45733;-80
2021/12/18 05:39:10;;;;;;;;;27.75;25.00;;;;;7.39;74.37;102826.47;4994805;28;46357;-80
2021/12/18 05:41:37;;;;;;;;;27.75;23.50;;;;;7.39;74.41;102829.09;4995175;28;45613;-80
2021/12/18 05:44:04;;;;;;;;;24.25;21.75;;;;;7.40;74.46;102827.31;4999812;28;45888;-81
2021/12/18 05:46:30;;;;;;;;;27.25;24.50;;;;;7.34;74.58;102811.84;4980637;28;47667;-81
2021/12/18 05:48:55;;;;;;;;;28.25;25.25;;;;;7.37;74.59;102812.59;4995508;28;46333;-80
2021/12/18 05:51:21;;;;;;;;;22.00;17.75;;;;;7.37;74.58;102810.00;4994208;28;45720;-81
2021/12/18 05:53:46;;;;;;;;;25.25;22.00;;;;;7.35;74.52;102810.91;4994144;28;45837;-80
2021/12/18 05:56:12;;;;;;;;;30.50;25.75;;;;;7.39;74.47;102818.66;4994253;28;45574;-80
2021/12/18 05:58:38;;;;;;;;;26.50;24.00;;;;;7.42;74.51;102812.50;4977633;28;45719;-78
2021/12/18 06:01:04;;;;;;;;;35.00;27.25;;;;;7.26;74.56;102787.66;4994046;28;45620;-79
2021/12/18 06:03:30;;;;;;;;;30.00;25.50;;;;;7.39;74.61;102804.75;5003764;28;45699;-80
2021/12/18 06:05:55;;;;;;;;;27.75;22.00;;;;;7.39;74.42;102795.19;5014094;28;46398;-80
2021/12/18 06:08:20;;;;;;;;;23.25;20.25;;;;;7.46;74.23;102812.38;5013970;28;45513;-80
2021/12/18 06:10:46;;;;;;;;;27.25;23.50;;;;;7.30;74.46;102779.72;5013725;28;45796;-80
2021/12/18 06:13:11;;;;;;;;;30.00;20.75;;;;;7.43;74.51;102801.19;5013967;28;45566;-81
2021/12/18 06:18:59;;;;;;;;;26.25;24.75;;;;;7.22;74.57;102776.47;5098780;27;45614;-80
2021/12/18 06:21:24;;;;;;;;;22.00;18.50;;;;;7.43;74.27;102812.47;5097257;27;45586;-78
2021/12/18 06:23:53;;;;;;;;;29.00;25.25;;;;;7.43;74.30;102804.66;5095960;27;45754;-79
2021/12/18 06:26:19;;;;;;;;;28.50;22.50;;;;;7.42;74.45;102805.53;5094819;27;46520;-81
2021/12/18 06:28:45;;;;;;;;;26.00;23.00;;;;;7.11;74.50;102755.84;5096118;27;46177;-81
2021/12/18 06:31:11;;;;;;;;;21.75;20.25;;;;;7.40;74.18;102801.25;5096517;27;45586;-80
2021/12/18 06:33:36;;;;;;;;;22.25;17.75;;;;;7.39;74.24;102808.22;5096594;27;45512;-81
2021/12/18 06:36:02;;;;;;;;;34.50;24.25;;;;;7.37;74.34;102796.09;5096421;27;46555;-80
2021/12/18 06:38:28;;;;;;;;;25.25;22.00;;;;;7.31;74.02;102796.25;5077840;27;47193;-81
2021/12/18 06:40:54;;;;;;;;;26.50;20.75;;;;;7.38;74.29;102814.34;5096227;27;45559;-79
2021/12/18 06:43:19;;;;;;;;;26.25;23.50;;;;;7.33;74.26;102805.75;5096710;27;45762;-79
2021/12/18 06:49:09;;;;;;;;;25.25;22.75;;;;;7.19;74.40;102799.97;5096544;27;46013;-81
2021/12/18 06:51:34;;;;;;;;;30.75;22.75;;;;;7.31;74.54;102820.56;5098630;27;45704;-81
2021/12/18 06:54:00;;;;;;;;;26.25;22.25;;;;;7.19;74.39;102797.38;5098643;27;45528;-80
2021/12/18 06:56:25;;;;;;;;;29.50;24.00;;;;;7.20;74.39;102812.13;5098226;27;46501;-81
2021/12/18 06:58:50;;;;;;;;;29.25;22.50;;;;;7.18;74.26;102813.06;5098300;27;45666;-80
2021/12/18 07:04:38;;;;;;;;;28.25;23.25;;;;;7.24;74.25;102821.56;5084589;27;45773;-78
2021/12/18 07:07:03;;;;;;;;;36.50;25.00;;;;;7.24;74.30;102815.50;5076707;28;46225;-79
2021/12/18 07:09:29;;;;;;;;;23.50;21.75;;;;;7.18;74.19;102816.50;5076295;28;46043;-81
2021/12/18 07:11:54;;;;;;;;;25.00;23.75;;;;;7.18;74.48;102819.09;5075330;28;45698;-80
2021/12/18 07:14:19;;;;;;;;;29.00;24.75;;;;;7.21;74.46;102832.09;5075735;28;45655;-80
2021/12/18 07:16:45;;;;;;;;;28.00;22.25;;;;;6.97;74.34;102789.13;5075632;28;46169;-80
2021/12/18 07:19:10;;;;;;;;;30.25;25.75;;;;;7.15;74.38;102822.66;5075201;28;46079;-82
2021/12/18 07:21:35;;;;;;;;;33.00;22.00;;;;;7.14;74.45;102828.75;5074964;28;45660;-79
2021/12/18 07:24:01;;;;;;;;;26.25;23.50;;;;;7.18;74.44;102836.53;5074834;28;45910;-81
2021/12/18 07:26:27;;;;;;;;;27.00;22.75;;;;;7.16;74.35;102832.19;5075161;28;46302;-81
2021/12/18 07:28:53;;;;;;;;;22.50;19.00;;;;;7.15;74.36;102834.81;5074997;28;46207;-80
2021/12/18 07:34:40;;;;;;;;;24.75;21.00;;;;;7.01;74.50;102832.50;5073749;28;45654;-78
2021/12/18 07:37:05;;;;;;;;;27.25;21.00;;;;;6.86;74.39;102811.97;5074160;28;46524;-80
2021/12/18 07:39:31;;;;;;;;;26.25;23.25;;;;;7.02;74.29;102846.38;5074830;28;46117;-81
2021/12/18 07:41:56;;;;;;;;;29.75;23.75;;;;;7.03;74.57;102848.97;5074997;28;45694;-80
2021/12/18 07:44:22;;;;;;;;;26.25;20.75;;;;;6.95;74.39;102832.63;5074839;28;45653;-80
2021/12/18 07:46:47;;;;;;;;;27.75;25.00;;;;;7.02;74.60;102841.16;5074777;28;46357;-80
2021/12/18 07:49:13;;;;;;;;;29.25;25.25;;;;;7.02;74.58;102841.16;5074700;28;46226;-80
2021/12/18 07:51:41;;;;;;;;;24.50;23.00;;;;;6.88;74.40;102825.81;5074382;28;45572;-80
2021/12/18 07:54:07;;;;;;;;;28.25;23.00;;;;;7.04;74.42;102847.22;5075336;28;45499;-80
2021/12/18 07:56:34;;;;;;;;;27.25;24.25;;;;;7.02;74.41;102847.22;5074780;28;45552;-81
2021/12/18 07:58:59;;;;;;;;;22.50;22.00;;;;;6.97;74.45;102837.78;5074748;28;46111;-80
2021/12/18 08:04:46;;;;;;;;;25.25;23.75;;;;;6.80;74.46;102814.72;5075002;27;45751;-79
2021/12/18 08:07:12;;;;;;;;;26.75;25.00;;;;;6.99;74.48;102836.03;5074388;28;45527;-79
2021/12/18 08:09:37;;;;;;;;;28.50;24.00;;;;;6.99;74.53;102844.69;5074315;28;45664;-82
2021/12/18 08:12:03;;;;;;;;;32.00;23.50;;;;;6.95;74.28;102840.44;5074259;28;45588;-81
2021/12/18 08:14:28;;;;;;;;;28.50;23.75;;;;;6.97;74.49;102836.03;5074166;28;45595;-81
2021/12/18 08:16:54;;;;;;;;;21.75;20.50;;;;;7.00;74.51;102837.75;5075295;28;46218;-81
2021/12/18 08:19:20;;;;;;;;;26.00;22.50;;;;;6.93;74.23;102831.78;5075849;28;45680;-80
2021/12/18 08:21:45;;;;;;;;;29.75;23.50;;;;;6.97;74.56;102843.88;5075773;28;45640;-81
2021/12/18 08:24:11;;;;;;;;;23.00;21.00;;;;;6.98;74.48;102848.19;5076999;28;45708;-81
2021/12/18 08:26:37;;;;;;;;;35.25;28.00;;;;;6.92;74.20;102837.03;5076843;28;45664;-80
2021/12/18 08:29:02;;;;;;;;;30.00;24.50;;;;;6.92;74.48;102844.84;5074603;28;45840;-82
2021/12/18 08:34:50;;;;;;;;;29.00;24.75;;;;;7.02;74.43;102857.66;5073401;28;45607;-76
2021/12/18 08:37:20;;;;;;;;;25.25;23.25;;;;;7.00;74.25;102856.00;5073168;28;47301;-78
2021/12/18 08:39:47;;;;;;;;;24.25;22.50;;;;;7.07;74.50;102857.59;5055180;28;47099;-77
2021/12/18 08:42:13;;;;;;;;;24.50;20.75;;;;;7.10;74.52;102860.97;5073755;28;45639;-76
2021/12/18 08:44:39;;;;;;;;;25.00;20.50;;;;;7.01;74.16;102842.94;5073653;28;45810;-76
2021/12/18 08:50:26;;;;;;;;;24.75;21.00;;;;;7.18;74.28;102868.63;5076581;28;45754;-76
2021/12/18 08:52:52;;;;;;;;;23.75;20.25;;;;;7.19;74.30;102857.31;5077204;28;45449;-76
2021/12/18 08:55:19;;;;;;;;;26.75;23.25;;;;;7.20;73.91;102864.25;5076614;28;45604;-77
2021/12/18 08:57:45;;;;;;;;;25.75;22.00;;;;;7.21;74.31;102859.91;5076983;28;47373;-77
2021/12/18 09:00:14;;;;;;;;;31.00;23.00;;;;;7.21;74.33;102865.97;5076406;28;47046;-75
2021/12/18 09:02:40;;;;;;;;;22.25;21.25;;;;;7.22;74.15;102859.00;5076169;28;45536;-76
2021/12/18 09:05:08;;;;;;;;;29.00;21.00;;;;;7.11;74.13;102839.25;5090194;27;45877;-77
2021/12/18 09:07:33;;;;;;;;;28.75;24.25;;;;;7.20;74.07;102856.44;5078617;27;46416;-76
2021/12/18 09:09:59;;;;;;;;;25.25;23.25;;;;;7.23;73.99;102853.78;5096685;27;47004;-79
2021/12/18 09:12:25;;;;;;;;;20.50;15.50;;;;;7.22;74.14;102854.66;5097464;27;45996;-78
2021/12/18 09:14:51;;;;;;;;;20.00;18.25;;;;;7.23;73.87;102856.38;5097450;27;45563;-79
2021/12/18 09:20:41;;;;;;;;;25.50;18.00;;;;;7.20;74.09;102847.75;5096472;27;46140;-78
2021/12/18 09:23:06;;;;;;;;;24.75;19.25;;;;;7.19;73.97;102849.50;5096932;27;45894;-77
2021/12/18 09:25:32;;;;;;;;;25.00;22.00;;;;;7.18;73.98;102839.13;5078419;27;45587;-77
2021/12/18 09:27:57;;;;;;;;;25.00;20.25;;;;;7.18;73.80;102845.16;5097074;27;46402;-79
2021/12/18 09:30:24;;;;;;;;;28.50;26.00;;;;;7.18;73.81;102845.16;5095954;27;46250;-81
2021/12/18 09:32:50;;;;;;;;;41.00;35.75;;;;;7.06;73.90;102807.22;5097095;27;45720;-80
2021/12/18 09:35:16;;;;;;;;;25.00;22.00;;;;;7.13;73.95;102820.94;5096979;27;45524;-79
2021/12/18 09:37:41;;;;;;;;;29.50;25.25;;;;;7.14;73.79;102822.66;5097098;27;46115;-78
2021/12/18 09:40:09;;;;;;;;;31.50;22.50;;;;;7.22;73.96;102846.84;5096728;27;45971;-78
2021/12/18 09:42:36;;;;;;;;;22.75;19.25;;;;;7.15;73.72;102827.84;5096721;27;45742;-78
2021/12/18 09:45:02;;;;;;;;;27.00;21.00;;;;;7.21;73.74;102824.25;5097418;27;45570;-77
2021/12/18 09:50:55;;;;;;;;;25.25;20.00;;;;;7.17;73.75;102827.84;5098808;27;45690;-79
2021/12/18 09:53:21;;;;;;;;;25.75;22.00;;;;;7.26;73.75;102840.66;5097478;27;45588;-76
2021/12/18 09:55:46;;;;;;;;;28.25;26.25;;;;;7.23;73.55;102830.31;5095141;27;45809;-78
2021/12/18 09:58:12;;;;;;;;;21.00;18.00;;;;;7.29;73.49;102839.75;5094243;27;45477;-76
2021/12/18 10:00:37;;;;;;;;;25.75;22.25;;;;;7.30;73.58;102836.22;5095348;27;46521;-78
2021/12/18 10:03:03;;;;;;;;;27.50;23.00;;;;;7.30;73.83;102839.69;5096145;27;45632;-78
2021/12/18 10:05:31;;;;;;;;;34.25;23.75;;;;;7.32;73.72;102832.72;5095428;27;45613;-79
2021/12/18 10:08:07;;;;;;;;;25.75;23.00;;;;;7.36;73.61;102825.66;5095334;27;45590;-79
2021/12/18 10:10:33;;;;;;;;;30.50;21.75;;;;;7.31;73.43;102809.28;5095058;27;46122;-77
2021/12/18 10:13:04;;;;;;;;;27.25;25.25;;;;;7.36;73.54;102821.31;5095768;27;45837;-78
2021/12/18 10:15:30;;;;;;;;;27.25;21.00;;;;;7.38;73.38;102814.34;5095460;27;45843;-78
2021/12/18 10:21:20;;;;;;;;;28.00;21.50;;;;;7.45;73.61;102815.88;5095418;27;45724;-78
2021/12/18 10:23:47;;;;;;;;;25.50;21.00;;;;;7.53;73.40;102819.19;5077604;27;45689;-76
2021/12/18 10:26:39;;;;;;;;;28.50;22.75;;;;;7.56;73.31;102819.13;5096260;27;45609;-78
2021/12/18 10:29:34;;;;;;;;;31.00;23.75;;;;;7.58;73.52;102827.78;5095633;27;46242;-79
2021/12/18 10:32:10;;;;;;;;;23.00;18.75;;;;;7.63;73.27;102817.22;5093125;27;46037;-78
2021/12/18 10:34:38;;;;;;;;;27.75;22.25;;;;;7.65;73.17;102825.03;5096102;27;45805;-79
2021/12/18 10:37:10;;;;;;;;;33.50;27.75;;;;;7.65;73.32;102814.59;5096044;27;45529;-77
2021/12/18 10:39:37;;;;;;;;;23.75;22.75;;;;;7.65;73.22;102812.84;5095815;27;45706;-79
2021/12/18 10:42:16;;;;;;;;;24.50;22.25;;;;;7.64;73.22;102805.91;5095873;27;46084;-78
2021/12/18 10:45:19;;;;;;;;;23.75;21.50;;;;;7.71;73.08;102817.91;5095680;27;45563;-78
2021/12/18 10:48:00;;;;;;;;;32.50;24.00;;;;;7.74;73.18;102804.78;4992938;28;45862;-78
2021/12/18 10:50:26;;;;;;;;;29.00;25.25;;;;;7.78;73.14;102816.00;4992370;28;46476;-77
2021/12/18 10:52:59;;;;;;;;;29.50;23.75;;;;;7.80;72.86;102806.41;4976338;28;46374;-78
2021/12/18 10:55:42;;;;;;;;;29.00;24.75;;;;;7.83;72.79;102799.34;4992929;28;45921;-75
2021/12/18 10:58:12;;;;;;;;;26.50;20.25;;;;;7.84;72.91;102793.22;4992642;28;45684;-78
2021/12/18 11:00:40;;;;;;;;;28.00;24.25;;;;;7.87;72.88;102795.78;4992836;28;45654;-78
2021/12/18 11:03:17;;;;;;;;;27.25;22.50;;;;;7.91;72.50;102788.72;4992936;28;46234;-77
2021/12/18 11:06:01;;;;;;;;;25.00;22.25;;;;;7.92;72.96;102780.88;4992394;28;45619;-75
2021/12/18 11:08:26;;;;;;;;;26.25;20.00;;;;;7.90;72.57;102772.19;4991971;28;45852;-78
2021/12/18 11:13:38;;;;;;;;;27.25;21.75;;;;;8.00;72.69;102783.25;4991662;28;45590;-79
2021/12/18 11:13:48;;;;;;;;;27.25;23.25;;;;;8.02;72.79;102784.09;4992528;28;45891;-77
2021/12/18 11:19:35;;;;;;;;;26.00;22.00;;;;;8.11;72.71;102773.41;4994683;28;45681;-78
2021/12/18 11:22:10;;;;;;;;;25.25;22.00;;;;;8.14;72.54;102782.91;5039823;28;46382;-78
2021/12/18 11:24:42;;;;;;;;;33.50;28.25;;;;;8.13;72.45;102778.59;5076360;28;46192;-78
2021/12/18 11:27:14;;;;;;;;;28.50;25.50;;;;;8.19;72.40;102787.13;5074304;28;45840;-78
2021/12/18 11:30:09;;;;;;;;;29.75;26.25;;;;;8.20;72.51;102777.53;5074409;28;45558;-76
2021/12/18 11:35:57;;;;;;;;;27.25;25.00;;;;;8.31;72.27;102775.53;5073960;28;45747;-78
2021/12/18 11:38:24;;;;;;;;;24.00;20.00;;;;;8.32;72.38;102754.59;5073728;28;45642;-76
2021/12/18 11:40:49;;;;;;;;;26.50;22.75;;;;;8.45;72.29;102770.78;5074301;28;45590;-76
2021/12/18 11:43:38;;;;;;;;;29.75;22.00;;;;;8.50;72.14;102766.28;5073788;28;47425;-80
2021/12/18 11:46:27;;;;;;;;;29.25;23.25;;;;;8.57;72.09;102764.38;5074195;28;46654;-77
2021/12/18 11:52:15;;;;;;;;;28.00;24.25;;;;;8.59;72.10;102741.66;5074039;28;45701;-80
2021/12/18 11:54:51;;;;;;;;;25.00;23.00;;;;;8.71;71.94;102755.22;5089261;27;47614;-79
2021/12/18 11:57:50;;;;;;;;;25.00;21.75;;;;;8.77;71.81;102767.25;5073691;28;46468;-79
2021/12/18 12:00:15;;;;;;;;;26.50;22.75;;;;;8.81;71.71;102758.44;5073815;28;45903;-78
2021/12/18 12:02:46;;;;;;;;;25.50;21.50;;;;;8.79;71.66;102744.56;5074188;28;45597;-78
2021/12/18 12:05:14;;;;;;;;;28.50;25.75;;;;;8.58;71.59;102706.00;5087933;27;47578;-75
2021/12/18 12:07:39;;;;;;;;;23.75;22.00;;;;;8.79;71.73;102724.53;5093570;27;47425;-77
2021/12/18 12:10:59;;;;;;;;;29.75;24.50;;;;;8.97;71.58;102749.22;5093010;27;45675;-78
2021/12/18 12:13:03;;;;;;;;;22.25;21.50;;;;;9.03;71.66;102740.34;5082838;27;45529;-79
2021/12/18 12:15:28;;;;;;;;;21.75;20.00;;;;;9.08;71.51;102738.44;5094132;27;46386;-78
2021/12/18 12:17:58;;;;;;;;;22.75;21.00;;;;;9.10;71.49;102737.50;5094194;27;46229;-79
2021/12/18 12:20:46;;;;;;;;;36.00;26.50;;;;;9.04;71.51;102718.53;5094105;27;45608;-78
2021/12/18 12:23:14;;;;;;;;;22.50;19.75;;;;;9.17;71.37;102730.34;5097551;27;45662;-79
2021/12/18 12:25:50;;;;;;;;;28.50;22.75;;;;;9.21;71.17;102727.56;5097933;27;45614;-78
2021/12/18 12:28:20;;;;;;;;;24.25;22.00;;;;;9.24;71.48;102724.84;5098020;27;46036;-78
2021/12/18 12:30:48;;;;;;;;;25.00;21.75;;;;;9.27;71.26;102730.00;5097782;27;45716;-79
2021/12/18 12:33:23;;;;;;;;;28.00;24.75;;;;;9.30;71.19;102726.41;5097819;27;45722;-77
2021/12/18 12:36:03;;;;;;;;;26.25;23.25;;;;;9.33;70.90;102721.09;5098325;27;45841;-82
2021/12/18 12:38:36;;;;;;;;;25.75;22.00;;;;;9.36;71.16;102722.75;5097863;27;46584;-78
2021/12/18 12:41:29;;;;;;;;;21.75;21.00;;;;;9.38;70.84;102723.56;5097493;27;45609;-79
2021/12/18 12:43:59;;;;;;;;;25.25;22.50;;;;;9.38;70.93;102720.97;5097612;27;45535;-75
2021/12/18 12:46:25;;;;;;;;;30.00;24.00;;;;;9.41;70.77;102721.69;5097546;27;45793;-77
2021/12/18 12:49:03;;;;;;;;;22.75;21.00;;;;;9.39;70.75;102713.06;5096743;27;46346;-76
2021/12/18 12:51:59;;;;;;;;;26.50;22.00;;;;;9.48;70.85;102718.00;5097264;27;45826;-78
2021/12/18 12:54:41;;;;;;;;;24.50;21.50;;;;;9.50;70.71;102705.69;5098486;27;45554;-77
2021/12/18 12:57:28;;;;;;;;;31.00;21.00;;;;;9.52;70.27;102697.81;5098309;27;46691;-77
2021/12/18 12:59:59;;;;;;;;;24.75;19.25;;;;;9.53;70.42;102694.28;5098087;27;46105;-77
2021/12/18 13:05:59;;;;;;;;;28.75;25.25;;;;;9.57;70.35;102694.13;5095525;27;45734;-78
2021/12/18 13:08:26;;;;;;;;;21.50;20.00;;;;;9.57;70.48;102683.66;5096874;27;46668;-77
2021/12/18 13:10:55;;;;;;;;;22.25;20.25;;;;;9.58;70.29;102682.75;5096422;27;46091;-76